sensor_id;sensor_type;location;lat;lon;timestamp;temperature;humidity
4960;DHT22;2495;48.200;11.532;2022-08-20T00:04:14;21.30;80.30
4960;DHT22;2495;48.200;11.532;2022-08-20T00:31:03;21.00;81.80
4960;DHT22;2495;48.200;11.532;2022-08-20T00:37:27;20.90;81.90
4960;DHT22;2495;48.200;11.532;2022-08-20T00:42:29;20.90;82.00
4960;DHT22;2495;48.200;11.532;2022-08-20T00:47:30;20.90;81.60
4960;DHT22;2495;48.200;11.532;2022-08-20T00:52:31;20.90;81.50
4960;DHT22;2495;48.200;11.532;2022-08-20T00:57:40;20.90;81.70
4960;DHT22;2495;48.200;11.532;2022-08-20T01:02:40;20.80;82.30
4960;DHT22;2495;48.200;11.532;2022-08-20T01:07:41;20.80;82.10
4960;DHT22;2495;48.200;11.532;2022-08-20T01:12:48;20.80;82.10
4960;DHT22;2495;48.200;11.532;2022-08-20T01:17:48;20.80;82.20
4960;DHT22;2495;48.200;11.532;2022-08-20T01:22:59;20.80;82.60
4960;DHT22;2495;48.200;11.532;2022-08-20T01:28:18;20.70;83.30
4960;DHT22;2495;48.200;11.532;2022-08-20T01:33:19;20.80;84.40
4960;DHT22;2495;48.200;11.532;2022-08-20T01:38:20;21.00;83.50
4960;DHT22;2495;48.200;11.532;2022-08-20T01:43:21;21.10;84.20
4960;DHT22;2495;48.200;11.532;2022-08-20T01:48:22;21.20;83.50
4960;DHT22;2495;48.200;11.532;2022-08-20T01:53:26;21.10;83.10
4960;DHT22;2495;48.200;11.532;2022-08-20T01:58:25;20.90;83.40
4960;DHT22;2495;48.200;11.532;2022-08-20T02:03:26;20.80;83.40
4960;DHT22;2495;48.200;11.532;2022-08-20T02:08:29;20.70;83.60
4960;DHT22;2495;48.200;11.532;2022-08-20T02:13:29;20.60;83.70
4960;DHT22;2495;48.200;11.532;2022-08-20T02:18:30;20.60;84.00
4960;DHT22;2495;48.200;11.532;2022-08-20T02:23:32;20.50;84.00
4960;DHT22;2495;48.200;11.532;2022-08-20T02:28:33;20.50;84.40
4960;DHT22;2495;48.200;11.532;2022-08-20T02:33:35;20.50;84.30
4960;DHT22;2495;48.200;11.532;2022-08-20T02:38:37;20.40;84.80
4960;DHT22;2495;48.200;11.532;2022-08-20T02:43:38;20.30;85.20
4960;DHT22;2495;48.200;11.532;2022-08-20T02:48:39;20.40;85.00
4960;DHT22;2495;48.200;11.532;2022-08-20T02:53:41;20.50;85.80
4960;DHT22;2495;48.200;11.532;2022-08-20T02:58:43;20.80;86.10
4960;DHT22;2495;48.200;11.532;2022-08-20T03:03:44;20.80;85.50
4960;DHT22;2495;48.200;11.532;2022-08-20T03:08:45;20.70;85.30
4960;DHT22;2495;48.200;11.532;2022-08-20T03:13:47;20.50;85.60
4960;DHT22;2495;48.200;11.532;2022-08-20T03:18:48;20.40;85.70
4960;DHT22;2495;48.200;11.532;2022-08-20T03:23:49;20.40;85.60
4960;DHT22;2495;48.200;11.532;2022-08-20T03:28:51;20.30;86.00
4960;DHT22;2495;48.200;11.532;2022-08-20T03:33:52;20.20;86.20
4960;DHT22;2495;48.200;11.532;2022-08-20T03:38:57;20.20;86.10
4960;DHT22;2495;48.200;11.532;2022-08-20T03:43:58;20.20;86.70
4960;DHT22;2495;48.200;11.532;2022-08-20T03:48:59;20.20;86.50
4960;DHT22;2495;48.200;11.532;2022-08-20T03:54:00;20.20;86.50
4960;DHT22;2495;48.200;11.532;2022-08-20T03:59:02;20.10;86.60
4960;DHT22;2495;48.200;11.532;2022-08-20T04:04:03;20.20;86.80
4960;DHT22;2495;48.200;11.532;2022-08-20T04:09:04;20.20;86.80
4960;DHT22;2495;48.200;11.532;2022-08-20T04:14:06;20.10;86.80
4960;DHT22;2495;48.200;11.532;2022-08-20T04:19:07;20.10;86.70
4960;DHT22;2495;48.200;11.532;2022-08-20T04:24:08;20.10;86.80
4960;DHT22;2495;48.200;11.532;2022-08-20T04:29:10;20.10;87.10
4960;DHT22;2495;48.200;11.532;2022-08-20T04:34:11;20.10;87.40
4960;DHT22;2495;48.200;11.532;2022-08-20T04:39:15;20.10;87.40
4960;DHT22;2495;48.200;11.532;2022-08-20T04:44:16;20.10;87.90
4960;DHT22;2495;48.200;11.532;2022-08-20T04:49:18;20.10;87.60
4960;DHT22;2495;48.200;11.532;2022-08-20T04:54:19;20.10;87.70
4960;DHT22;2495;48.200;11.532;2022-08-20T04:59:20;20.10;87.80
4960;DHT22;2495;48.200;11.532;2022-08-20T05:04:22;20.00;88.00
4960;DHT22;2495;48.200;11.532;2022-08-20T05:09:23;20.00;88.00
4960;DHT22;2495;48.200;11.532;2022-08-20T05:14:24;20.00;87.90
4960;DHT22;2495;48.200;11.532;2022-08-20T05:19:26;20.10;88.30
4960;DHT22;2495;48.200;11.532;2022-08-20T05:24:27;20.10;87.80
4960;DHT22;2495;48.200;11.532;2022-08-20T05:35:11;20.10;88.80
4960;DHT22;2495;48.200;11.532;2022-08-20T05:41:14;20.10;88.40
4960;DHT22;2495;48.200;11.532;2022-08-20T05:53:08;20.90;89.80
4960;DHT22;2495;48.200;11.532;2022-08-20T05:58:14;20.80;87.50
4960;DHT22;2495;48.200;11.532;2022-08-20T06:03:17;20.70;88.10
4960;DHT22;2495;48.200;11.532;2022-08-20T06:08:36;20.70;87.80
4960;DHT22;2495;48.200;11.532;2022-08-20T06:13:38;20.60;87.40
4960;DHT22;2495;48.200;11.532;2022-08-20T06:18:39;20.60;87.80
4960;DHT22;2495;48.200;11.532;2022-08-20T06:23:41;20.60;87.70
4960;DHT22;2495;48.200;11.532;2022-08-20T06:28:42;20.80;89.30
4960;DHT22;2495;48.200;11.532;2022-08-20T06:33:44;21.00;88.70
4960;DHT22;2495;48.200;11.532;2022-08-20T06:38:45;21.10;87.70
4960;DHT22;2495;48.200;11.532;2022-08-20T06:43:47;21.10;87.90
4960;DHT22;2495;48.200;11.532;2022-08-20T06:48:48;21.00;87.70
4960;DHT22;2495;48.200;11.532;2022-08-20T06:53:50;21.00;88.00
4960;DHT22;2495;48.200;11.532;2022-08-20T06:58:51;20.90;87.20
4960;DHT22;2495;48.200;11.532;2022-08-20T07:03:52;20.90;87.50
4960;DHT22;2495;48.200;11.532;2022-08-20T07:08:54;20.70;87.40
4960;DHT22;2495;48.200;11.532;2022-08-20T07:13:56;20.90;88.90
4960;DHT22;2495;48.200;11.532;2022-08-20T07:18:56;21.20;89.20
4960;DHT22;2495;48.200;11.532;2022-08-20T07:23:58;21.40;88.90
4960;DHT22;2495;48.200;11.532;2022-08-20T07:29:00;21.40;87.70
4960;DHT22;2495;48.200;11.532;2022-08-20T07:34:01;21.30;87.50
4960;DHT22;2495;48.200;11.532;2022-08-20T07:39:03;21.20;87.70
4960;DHT22;2495;48.200;11.532;2022-08-20T07:44:04;21.10;87.90
4960;DHT22;2495;48.200;11.532;2022-08-20T07:49:05;21.20;89.00
4960;DHT22;2495;48.200;11.532;2022-08-20T07:54:07;21.30;87.70
4960;DHT22;2495;48.200;11.532;2022-08-20T07:59:09;21.30;87.00
4960;DHT22;2495;48.200;11.532;2022-08-20T08:04:10;21.20;87.20
4960;DHT22;2495;48.200;11.532;2022-08-20T08:09:12;21.10;87.50
4960;DHT22;2495;48.200;11.532;2022-08-20T08:14:13;21.10;88.00
4960;DHT22;2495;48.200;11.532;2022-08-20T08:19:15;21.10;87.70
4960;DHT22;2495;48.200;11.532;2022-08-20T08:24:16;21.10;87.50
4960;DHT22;2495;48.200;11.532;2022-08-20T08:29:18;21.00;87.80
4960;DHT22;2495;48.200;11.532;2022-08-20T08:34:19;21.00;87.60
4960;DHT22;2495;48.200;11.532;2022-08-20T08:39:21;21.00;88.20
4960;DHT22;2495;48.200;11.532;2022-08-20T08:44:27;21.00;88.00
4960;DHT22;2495;48.200;11.532;2022-08-20T08:49:28;21.00;88.60
4960;DHT22;2495;48.200;11.532;2022-08-20T08:54:28;20.90;88.10
4960;DHT22;2495;48.200;11.532;2022-08-20T08:59:30;20.90;88.20
4960;DHT22;2495;48.200;11.532;2022-08-20T09:04:33;21.00;87.90
4960;DHT22;2495;48.200;11.532;2022-08-20T09:09:36;21.00;88.00
4960;DHT22;2495;48.200;11.532;2022-08-20T09:14:37;20.90;89.50
4960;DHT22;2495;48.200;11.532;2022-08-20T09:19:38;20.90;88.00
4960;DHT22;2495;48.200;11.532;2022-08-20T09:24:41;21.10;88.80
4960;DHT22;2495;48.200;11.532;2022-08-20T09:29:47;21.30;88.10
4960;DHT22;2495;48.200;11.532;2022-08-20T09:34:50;21.20;88.40
4960;DHT22;2495;48.200;11.532;2022-08-20T09:39:56;21.30;87.90
4960;DHT22;2495;48.200;11.532;2022-08-20T09:44:58;21.20;88.00
4960;DHT22;2495;48.200;11.532;2022-08-20T09:49:59;21.20;88.00
4960;DHT22;2495;48.200;11.532;2022-08-20T09:55:05;21.20;88.10
4960;DHT22;2495;48.200;11.532;2022-08-20T10:00:06;21.20;89.00
4960;DHT22;2495;48.200;11.532;2022-08-20T10:05:06;21.40;90.10
4960;DHT22;2495;48.200;11.532;2022-08-20T10:10:09;21.50;89.20
4960;DHT22;2495;48.200;11.532;2022-08-20T10:15:10;21.50;88.70
4960;DHT22;2495;48.200;11.532;2022-08-20T10:20:11;21.50;88.50
4960;DHT22;2495;48.200;11.532;2022-08-20T10:25:12;21.50;88.40
4960;DHT22;2495;48.200;11.532;2022-08-20T10:30:14;21.40;88.30
4960;DHT22;2495;48.200;11.532;2022-08-20T10:35:18;21.40;88.40
4960;DHT22;2495;48.200;11.532;2022-08-20T10:40:20;21.50;89.00
4960;DHT22;2495;48.200;11.532;2022-08-20T10:45:24;21.50;88.50
4960;DHT22;2495;48.200;11.532;2022-08-20T10:50:26;21.50;88.60
4960;DHT22;2495;48.200;11.532;2022-08-20T10:55:33;21.60;88.60
4960;DHT22;2495;48.200;11.532;2022-08-20T11:00:35;21.70;87.70
4960;DHT22;2495;48.200;11.532;2022-08-20T11:05:36;21.80;87.80
4960;DHT22;2495;48.200;11.532;2022-08-20T11:10:40;21.90;87.50
4960;DHT22;2495;48.200;11.532;2022-08-20T11:15:42;21.90;87.40
4960;DHT22;2495;48.200;11.532;2022-08-20T11:20:44;22.00;87.60
4960;DHT22;2495;48.200;11.532;2022-08-20T11:25:46;22.10;87.80
4960;DHT22;2495;48.200;11.532;2022-08-20T11:30:47;22.20;87.90
4960;DHT22;2495;48.200;11.532;2022-08-20T11:35:48;22.40;87.50
4960;DHT22;2495;48.200;11.532;2022-08-20T11:40:50;22.50;87.80
4960;DHT22;2495;48.200;11.532;2022-08-20T11:45:51;22.50;87.50
4960;DHT22;2495;48.200;11.532;2022-08-20T11:50:52;22.60;87.70
4960;DHT22;2495;48.200;11.532;2022-08-20T11:55:54;22.70;87.50
4960;DHT22;2495;48.200;11.532;2022-08-20T12:00:55;22.80;87.50
4960;DHT22;2495;48.200;11.532;2022-08-20T12:05:56;22.80;87.00
4960;DHT22;2495;48.200;11.532;2022-08-20T12:10:58;22.90;86.90
4960;DHT22;2495;48.200;11.532;2022-08-20T12:15:59;23.20;87.30
4960;DHT22;2495;48.200;11.532;2022-08-20T12:21:00;23.40;86.80
4960;DHT22;2495;48.200;11.532;2022-08-20T12:26:01;23.60;86.70
4960;DHT22;2495;48.200;11.532;2022-08-20T12:31:03;23.60;86.40
4960;DHT22;2495;48.200;11.532;2022-08-20T12:36:07;23.50;86.50
4960;DHT22;2495;48.200;11.532;2022-08-20T12:41:05;23.60;86.70
4960;DHT22;2495;48.200;11.532;2022-08-20T12:46:07;23.80;86.20
4960;DHT22;2495;48.200;11.532;2022-08-20T12:51:08;24.20;85.70
4960;DHT22;2495;48.200;11.532;2022-08-20T12:56:09;24.40;84.40
4960;DHT22;2495;48.200;11.532;2022-08-20T13:01:11;24.40;85.70
4960;DHT22;2495;48.200;11.532;2022-08-20T13:06:12;24.30;84.80
4960;DHT22;2495;48.200;11.532;2022-08-20T13:11:13;24.10;84.80
4960;DHT22;2495;48.200;11.532;2022-08-20T13:16:15;24.00;85.10
4960;DHT22;2495;48.200;11.532;2022-08-20T13:21:16;23.80;85.00
4960;DHT22;2495;48.200;11.532;2022-08-20T13:26:18;24.00;86.20
4960;DHT22;2495;48.200;11.532;2022-08-20T13:31:19;24.00;85.20
4960;DHT22;2495;48.200;11.532;2022-08-20T13:36:20;23.90;85.00
4960;DHT22;2495;48.200;11.532;2022-08-20T13:41:22;23.90;85.00
4960;DHT22;2495;48.200;11.532;2022-08-20T13:46:23;24.10;85.70
4960;DHT22;2495;48.200;11.532;2022-08-20T13:51:24;24.20;84.20
4960;DHT22;2495;48.200;11.532;2022-08-20T13:56:26;24.30;83.30
4960;DHT22;2495;48.200;11.532;2022-08-20T14:01:27;24.60;82.80
4960;DHT22;2495;48.200;11.532;2022-08-20T14:06:28;25.00;81.80
4960;DHT22;2495;48.200;11.532;2022-08-20T14:11:30;25.10;81.10
4960;DHT22;2495;48.200;11.532;2022-08-20T14:16:31;24.80;81.00
4960;DHT22;2495;48.200;11.532;2022-08-20T14:21:33;24.40;81.80
4960;DHT22;2495;48.200;11.532;2022-08-20T14:26:40;24.10;81.00
4960;DHT22;2495;48.200;11.532;2022-08-20T14:31:47;23.60;81.10
4960;DHT22;2495;48.200;11.532;2022-08-20T14:36:48;23.30;83.10
4960;DHT22;2495;48.200;11.532;2022-08-20T14:41:50;23.20;82.50
4960;DHT22;2495;48.200;11.532;2022-08-20T14:47:34;23.00;82.10
4960;DHT22;2495;48.200;11.532;2022-08-20T14:52:16;22.70;84.60
4960;DHT22;2495;48.200;11.532;2022-08-20T14:57:17;22.40;84.10
4960;DHT22;2495;48.200;11.532;2022-08-20T15:02:18;22.10;85.10
4960;DHT22;2495;48.200;11.532;2022-08-20T15:07:29;21.80;85.40
4960;DHT22;2495;48.200;11.532;2022-08-20T15:12:27;21.30;86.50
4960;DHT22;2495;48.200;11.532;2022-08-20T15:17:28;20.70;88.60
4960;DHT22;2495;48.200;11.532;2022-08-20T15:22:29;20.70;87.60
4960;DHT22;2495;48.200;11.532;2022-08-20T15:27:34;20.60;87.60
4960;DHT22;2495;48.200;11.532;2022-08-20T15:32:41;20.50;88.10
4960;DHT22;2495;48.200;11.532;2022-08-20T15:37:43;20.50;87.80
4960;DHT22;2495;48.200;11.532;2022-08-20T15:42:44;20.60;87.90
4960;DHT22;2495;48.200;11.532;2022-08-20T15:53:12;20.50;89.40
4960;DHT22;2495;48.200;11.532;2022-08-20T15:58:22;20.40;89.70
4960;DHT22;2495;48.200;11.532;2022-08-20T16:03:38;20.50;89.60
4960;DHT22;2495;48.200;11.532;2022-08-20T16:13:50;20.60;90.60
4960;DHT22;2495;48.200;11.532;2022-08-20T16:18:50;20.90;90.60
4960;DHT22;2495;48.200;11.532;2022-08-20T16:23:51;20.90;89.80
4960;DHT22;2495;48.200;11.532;2022-08-20T16:34:39;21.00;90.40
4960;DHT22;2495;48.200;11.532;2022-08-20T16:39:49;20.90;90.10
4960;DHT22;2495;48.200;11.532;2022-08-20T16:44:46;20.70;90.10
4960;DHT22;2495;48.200;11.532;2022-08-20T16:49:57;20.70;90.30
4960;DHT22;2495;48.200;11.532;2022-08-20T16:54:57;21.00;90.70
4960;DHT22;2495;48.200;11.532;2022-08-20T17:10:52;21.00;90.30
4960;DHT22;2495;48.200;11.532;2022-08-20T17:16:02;21.00;90.90
4960;DHT22;2495;48.200;11.532;2022-08-20T17:21:19;21.00;90.30
4960;DHT22;2495;48.200;11.532;2022-08-20T17:26:42;20.90;90.40
4960;DHT22;2495;48.200;11.532;2022-08-20T17:31:50;20.70;90.40
4960;DHT22;2495;48.200;11.532;2022-08-20T17:36:57;20.70;90.60
4960;DHT22;2495;48.200;11.532;2022-08-20T17:42:03;20.70;91.20
4960;DHT22;2495;48.200;11.532;2022-08-20T17:46:58;20.90;90.50
4960;DHT22;2495;48.200;11.532;2022-08-20T17:52:00;20.80;90.40
4960;DHT22;2495;48.200;11.532;2022-08-20T17:57:06;20.70;90.50
4960;DHT22;2495;48.200;11.532;2022-08-20T18:02:06;20.60;91.20
4960;DHT22;2495;48.200;11.532;2022-08-20T18:12:18;20.50;91.00
4960;DHT22;2495;48.200;11.532;2022-08-20T18:22:58;20.90;91.60
4960;DHT22;2495;48.200;11.532;2022-08-20T18:28:20;21.00;90.90
4960;DHT22;2495;48.200;11.532;2022-08-20T18:33:36;20.90;91.00
4960;DHT22;2495;48.200;11.532;2022-08-20T18:38:36;20.80;91.10
4960;DHT22;2495;48.200;11.532;2022-08-20T18:43:40;20.70;90.90
4960;DHT22;2495;48.200;11.532;2022-08-20T18:48:54;20.70;90.90
4960;DHT22;2495;48.200;11.532;2022-08-20T18:54:04;20.80;91.80
4960;DHT22;2495;48.200;11.532;2022-08-20T18:59:19;20.90;91.30
4960;DHT22;2495;48.200;11.532;2022-08-20T19:04:28;20.80;91.30
4960;DHT22;2495;48.200;11.532;2022-08-20T19:09:49;20.90;91.40
4960;DHT22;2495;48.200;11.532;2022-08-20T19:20:26;20.90;91.30
4960;DHT22;2495;48.200;11.532;2022-08-20T19:25:45;20.80;91.10
4960;DHT22;2495;48.200;11.532;2022-08-20T19:30:44;20.80;91.50
4960;DHT22;2495;48.200;11.532;2022-08-20T19:35:54;20.90;91.10
4960;DHT22;2495;48.200;11.532;2022-08-20T19:41:05;20.80;91.10
4960;DHT22;2495;48.200;11.532;2022-08-20T19:46:17;20.70;91.20
4960;DHT22;2495;48.200;11.532;2022-08-20T19:57:19;20.50;91.50
4960;DHT22;2495;48.200;11.532;2022-08-20T20:02:27;20.50;91.60
